createdAt,value
2019-01-18T00:00:05.451Z,-1.33
2019-01-18T00:01:43.789Z,-1.33
2019-01-18T00:03:19.129Z,-1.33
2019-01-18T00:04:57.858Z,-1.31
2019-01-18T00:06:36.066Z,-1.32
2019-01-18T00:08:13.285Z,-1.32
2019-01-18T00:09:50.118Z,-1.36
2019-01-18T00:11:26.630Z,-1.35
2019-01-18T00:13:06.661Z,-1.34
2019-01-18T00:14:42.847Z,-1.35
2019-01-18T00:16:18.608Z,-1.37
2019-01-18T00:17:55.384Z,-1.38
2019-01-18T00:19:30.732Z,-1.40
2019-01-18T00:21:06.475Z,-1.37
2019-01-18T00:22:42.435Z,-1.33
2019-01-18T00:24:18.782Z,-1.35
2019-01-18T00:25:54.059Z,-1.32
2019-01-18T00:27:29.932Z,-1.29
2019-01-18T00:29:06.461Z,-1.30
2019-01-18T00:30:43.311Z,-1.28
2019-01-18T00:32:21.405Z,-1.29
2019-01-18T00:33:56.623Z,-1.28
2019-01-18T00:35:32.829Z,-1.28
2019-01-18T00:37:08.371Z,-1.31
2019-01-18T00:38:44.818Z,-1.30
2019-01-18T00:40:20.751Z,-1.29
2019-01-18T00:41:56.623Z,-1.28
2019-01-18T00:43:32.638Z,-1.27
2019-01-18T00:45:13.038Z,-1.28
2019-01-18T00:46:49.667Z,-1.26
2019-01-18T00:48:25.478Z,-1.23
2019-01-18T00:50:03.819Z,-1.23
2019-01-18T00:51:41.406Z,-1.23
2019-01-18T00:53:17.508Z,-1.20
2019-01-18T00:54:52.822Z,-1.21
2019-01-18T00:56:28.253Z,-1.22
2019-01-18T00:58:06.580Z,-1.23
2019-01-18T00:59:44.325Z,-1.22
2019-01-18T01:01:19.772Z,-1.22
2019-01-18T01:02:55.795Z,-1.26
2019-01-18T01:04:31.275Z,-1.25
2019-01-18T01:06:06.592Z,-1.24
2019-01-18T01:07:44.775Z,-1.20
2019-01-18T01:09:26.510Z,-1.24
2019-01-18T01:11:05.333Z,-1.22
2019-01-18T01:12:41.528Z,-1.23
2019-01-18T01:14:25.700Z,-1.24
2019-01-18T01:16:02.063Z,-1.23
2019-01-18T01:17:37.348Z,-1.24
2019-01-18T01:19:14.126Z,-1.24
2019-01-18T01:20:49.621Z,-1.23
2019-01-18T01:22:25.496Z,-1.26
2019-01-18T01:24:00.900Z,-1.30
2019-01-18T01:25:36.512Z,-1.30
2019-01-18T01:27:14.198Z,-1.32
2019-01-18T01:28:50.280Z,-1.31
2019-01-18T01:30:29.845Z,-1.30
2019-01-18T01:32:05.472Z,-1.27
2019-01-18T01:33:41.585Z,-1.27
2019-01-18T01:35:20.027Z,-1.27
2019-01-18T01:36:55.467Z,-1.30
2019-01-18T01:38:32.249Z,-1.33
2019-01-18T01:40:11.397Z,-1.35
2019-01-18T01:41:46.923Z,-1.32
2019-01-18T01:43:26.567Z,-1.31
2019-01-18T01:45:04.845Z,-1.30
2019-01-18T01:46:40.532Z,-1.28
2019-01-18T01:48:15.927Z,-1.35
2019-01-18T01:49:51.451Z,-1.28
2019-01-18T01:51:27.220Z,-1.28
2019-01-18T01:53:02.541Z,-1.28
2019-01-18T01:54:38.391Z,-1.30
2019-01-18T01:56:14.088Z,-1.29
2019-01-18T01:57:50.495Z,-1.32
2019-01-18T01:59:26.542Z,-1.39
2019-01-18T02:01:02.500Z,-1.37
2019-01-18T02:02:38.409Z,-1.33
2019-01-18T02:04:13.721Z,-1.36
2019-01-18T02:05:48.972Z,-1.39
2019-01-18T02:07:26.245Z,-1.40
2019-01-18T02:09:02.268Z,-1.42
2019-01-18T02:10:37.615Z,-1.38
2019-01-18T02:12:13.419Z,-1.40
2019-01-18T02:13:48.685Z,-1.41
2019-01-18T02:15:26.567Z,-1.40
2019-01-18T02:17:02.249Z,-1.39
2019-01-18T02:18:37.906Z,-1.42
2019-01-18T02:20:21.298Z,-1.42
2019-01-18T02:21:56.815Z,-1.44
2019-01-18T02:23:32.377Z,-1.49
2019-01-18T02:25:08.890Z,-1.50
2019-01-18T02:26:46.019Z,-1.48
2019-01-18T02:28:21.170Z,-1.50
2019-01-18T02:29:56.968Z,-1.50
2019-01-18T02:31:32.397Z,-1.47
2019-01-18T02:33:08.418Z,-1.45
2019-01-18T02:34:43.805Z,-1.50
2019-01-18T02:36:19.193Z,-1.53
2019-01-18T02:37:55.102Z,-1.54
2019-01-18T02:39:30.855Z,-1.52
2019-01-18T02:41:06.464Z,-1.51
2019-01-18T02:42:42.063Z,-1.52
2019-01-18T02:44:17.512Z,-1.53
2019-01-18T02:45:52.971Z,-1.49
2019-01-18T02:47:28.531Z,-1.48
2019-01-18T02:49:03.755Z,-1.50
2019-01-18T02:50:40.885Z,-1.54
2019-01-18T02:52:16.128Z,-1.53
2019-01-18T02:53:51.457Z,-1.53
2019-01-18T02:55:29.053Z,-1.55
2019-01-18T02:57:03.972Z,-1.54
2019-01-18T02:58:39.247Z,-1.54
2019-01-18T03:00:22.577Z,-1.53
2019-01-18T03:01:57.851Z,-1.51
2019-01-18T03:03:33.297Z,-1.50
2019-01-18T03:05:10.566Z,-1.48
2019-01-18T03:06:46.370Z,-1.49
2019-01-18T03:08:21.598Z,-1.51
2019-01-18T03:09:57.151Z,-1.50
2019-01-18T03:11:32.405Z,-1.51
2019-01-18T03:13:08.462Z,-1.49
2019-01-18T03:14:43.853Z,-1.46
2019-01-18T03:16:19.171Z,-1.40
2019-01-18T03:17:55.040Z,-1.44
2019-01-18T03:19:32.876Z,-1.42
2019-01-18T03:21:08.167Z,-1.53
2019-01-18T03:22:43.695Z,-1.52
2019-01-18T03:24:22.346Z,-1.51
2019-01-18T03:25:58.987Z,-1.51
2019-01-18T03:27:35.356Z,-1.50
2019-01-18T03:29:10.989Z,-1.52
2019-01-18T03:30:46.662Z,-1.50
2019-01-18T03:32:23.228Z,-1.51
2019-01-18T03:34:01.400Z,-1.49
2019-01-18T03:35:38.362Z,-1.56
2019-01-18T03:37:15.474Z,-1.57
2019-01-18T03:38:52.445Z,-1.55
2019-01-18T03:40:33.307Z,-1.52
2019-01-18T03:42:09.976Z,-1.51
2019-01-18T03:43:48.343Z,-1.49
2019-01-18T03:45:26.611Z,-1.57
2019-01-18T03:47:02.343Z,-1.61
2019-01-18T03:48:38.377Z,-1.59
2019-01-18T03:50:18.666Z,-1.59
2019-01-18T03:51:54.182Z,-1.60
2019-01-18T03:53:29.985Z,-1.57
2019-01-18T03:55:05.986Z,-1.55
2019-01-18T03:56:46.420Z,-1.61
2019-01-18T03:58:23.362Z,-1.59
2019-01-18T03:59:58.711Z,-1.57
2019-01-18T04:01:33.991Z,-1.60
2019-01-18T04:03:10.023Z,-1.62
2019-01-18T04:04:45.565Z,-1.63
2019-01-18T04:06:21.076Z,-1.65
2019-01-18T04:07:56.817Z,-1.64
2019-01-18T04:09:39.183Z,-1.64
2019-01-18T04:11:19.069Z,-1.61
2019-01-18T04:12:59.794Z,-1.61
2019-01-18T04:14:35.150Z,-1.58
2019-01-18T04:16:11.910Z,-1.59
2019-01-18T04:17:47.587Z,-1.62
2019-01-18T04:19:23.033Z,-1.66
2019-01-18T04:20:58.467Z,-1.69
2019-01-18T04:22:38.683Z,-1.69
2019-01-18T04:24:14.431Z,-1.66
2019-01-18T04:25:50.206Z,-1.65
2019-01-18T04:27:25.534Z,-1.66
2019-01-18T04:29:00.876Z,-1.68
2019-01-18T04:30:36.142Z,-1.66
2019-01-18T04:32:12.216Z,-1.62
2019-01-18T04:33:53.511Z,-1.66
2019-01-18T04:35:28.840Z,-1.59
2019-01-18T04:37:04.213Z,-1.57
2019-01-18T04:38:41.427Z,-1.56
2019-01-18T04:40:19.588Z,-1.62
2019-01-18T04:41:55.019Z,-1.67
2019-01-18T04:43:30.696Z,-1.68
2019-01-18T04:45:07.790Z,-1.68
2019-01-18T04:46:43.662Z,-1.65
2019-01-18T04:48:19.662Z,-1.63
2019-01-18T04:49:56.103Z,-1.68
2019-01-18T04:51:31.449Z,-1.63
2019-01-18T04:53:07.085Z,-1.64
2019-01-18T04:54:45.443Z,-1.59
2019-01-18T04:56:21.471Z,-1.62
2019-01-18T04:57:58.531Z,-1.51
2019-01-18T04:59:39.880Z,-1.51
2019-01-18T05:01:15.322Z,-1.54
2019-01-18T05:02:55.472Z,-1.60
2019-01-18T05:04:29.143Z,-1.72
2019-01-18T05:06:04.946Z,-1.79
2019-01-18T05:07:40.154Z,-1.87
2019-01-18T05:09:18.146Z,-1.95
2019-01-18T05:10:53.897Z,-2.02
2019-01-18T05:12:29.301Z,-2.08
2019-01-18T05:14:04.611Z,-2.17
2019-01-18T05:15:42.922Z,-2.22
2019-01-18T05:17:21.196Z,-2.31
2019-01-18T05:18:56.543Z,-2.35
2019-01-18T05:20:33.114Z,-2.29
2019-01-18T05:22:13.329Z,-2.29
2019-01-18T05:23:53.668Z,-2.33
2019-01-18T05:25:30.905Z,-2.41
2019-01-18T05:27:11.159Z,-2.53
2019-01-18T05:28:47.115Z,-2.61
2019-01-18T05:30:27.851Z,-2.63
2019-01-18T05:32:06.136Z,-2.64
2019-01-18T05:33:42.684Z,-2.66
2019-01-18T05:35:18.578Z,-2.72
2019-01-18T05:36:56.996Z,-2.77
2019-01-18T05:38:33.930Z,-2.80
2019-01-18T05:40:18.576Z,-2.90
2019-01-18T05:41:55.332Z,-2.99
2019-01-18T05:43:32.473Z,-3.14
2019-01-18T05:45:17.230Z,-3.26
2019-01-18T05:46:58.814Z,-3.35
2019-01-18T05:48:36.418Z,-3.44
2019-01-18T05:50:19.837Z,-3.55
2019-01-18T05:52:02.253Z,-3.59
2019-01-18T05:53:39.225Z,-3.71
2019-01-18T05:55:20.170Z,-3.64
2019-01-18T05:56:57.496Z,-3.73
2019-01-18T05:58:42.791Z,-3.72
2019-01-18T06:00:55.376Z,-3.82
2019-01-18T06:02:34.929Z,-3.93
2019-01-18T06:04:10.844Z,-4.01
2019-01-18T06:05:47.283Z,-3.97
2019-01-18T06:07:24.392Z,-4.03
2019-01-18T06:09:04.981Z,-4.02
2019-01-18T06:10:42.922Z,-3.95
2019-01-18T06:12:23.329Z,-4.02
2019-01-18T06:14:01.935Z,-4.02
2019-01-18T06:15:37.515Z,-4.01
2019-01-18T06:17:21.109Z,-4.24
2019-01-18T06:18:58.580Z,-4.22
2019-01-18T06:20:45.096Z,-4.14
2019-01-18T06:22:24.979Z,-4.10
2019-01-18T06:24:03.807Z,-4.10
2019-01-18T06:25:42.054Z,-4.32
2019-01-18T06:27:19.576Z,-4.48
2019-01-18T06:29:04.960Z,-4.61
2019-01-18T06:30:42.674Z,-4.74
2019-01-18T06:32:26.363Z,-4.79
2019-01-18T06:34:03.100Z,-4.86
2019-01-18T06:37:51.293Z,-4.85
2019-01-18T06:39:31.713Z,-4.96
2019-01-18T06:41:24.317Z,-5.00
2019-01-18T06:43:02.936Z,-5.06
2019-01-18T06:44:40.789Z,-5.16
2019-01-18T06:46:21.158Z,-5.27
2019-01-18T06:47:56.858Z,-5.27
2019-01-18T06:49:39.248Z,-5.28
2019-01-18T06:51:13.011Z,-5.29
2019-01-18T06:52:48.673Z,-5.31
2019-01-18T06:54:26.360Z,-5.34
2019-01-18T06:56:04.671Z,-5.36
2019-01-18T06:57:40.403Z,-5.30
2019-01-18T06:59:25.775Z,-5.23
2019-01-18T07:01:01.450Z,-5.09
2019-01-18T07:02:43.054Z,-5.01
2019-01-18T07:04:18.561Z,-5.10
2019-01-18T07:05:53.957Z,-5.10
2019-01-18T07:07:29.508Z,-5.07
2019-01-18T07:09:09.859Z,-5.12
2019-01-18T07:10:45.143Z,-5.17
2019-01-18T07:12:20.579Z,-5.22
2019-01-18T07:13:56.051Z,-5.19
2019-01-18T07:15:34.743Z,-5.14
2019-01-18T07:17:12.983Z,-5.02
2019-01-18T07:18:48.361Z,-4.93
2019-01-18T07:20:23.839Z,-4.92
2019-01-18T07:22:00.097Z,-5.01
2019-01-18T07:23:35.530Z,-5.09
2019-01-18T07:25:14.132Z,-5.30
2019-01-18T07:26:49.611Z,-5.16
2019-01-18T07:28:26.137Z,-5.15
2019-01-18T07:30:01.454Z,-5.10
2019-01-18T07:31:37.074Z,-5.03
2019-01-18T07:33:17.218Z,-5.10
2019-01-18T07:34:55.994Z,-5.20
2019-01-18T07:36:34.931Z,-5.20
2019-01-18T07:38:10.952Z,-5.20
2019-01-18T07:39:46.923Z,-5.36
2019-01-18T07:41:25.575Z,-5.30
2019-01-18T07:43:01.386Z,-5.24
2019-01-18T07:44:39.739Z,-5.30
2019-01-18T07:46:15.483Z,-5.30
2019-01-18T07:47:53.341Z,-5.22
2019-01-18T07:49:30.645Z,-5.12
2019-01-18T07:51:13.650Z,-5.02
2019-01-18T07:52:50.951Z,-4.92
2019-01-18T07:54:39.039Z,-4.83
2019-01-18T07:56:17.885Z,-4.84
2019-01-18T07:57:55.903Z,-4.73
2019-01-18T07:59:37.486Z,-4.71
2019-01-18T08:01:21.844Z,-4.60
2019-01-18T08:03:06.273Z,-4.55
2019-01-18T08:04:48.694Z,-4.72
2019-01-18T08:06:37.645Z,-4.86
2019-01-18T08:08:26.171Z,-4.93
2019-01-18T08:10:02.865Z,-5.03
2019-01-18T08:11:41.676Z,-5.12
2019-01-18T08:13:17.661Z,-5.14
2019-01-18T08:14:52.970Z,-5.18
2019-01-18T08:16:31.195Z,-5.18
2019-01-18T08:18:07.623Z,-5.19
2019-01-18T08:19:43.088Z,-5.17
2019-01-18T08:21:19.023Z,-5.12
2019-01-18T08:22:55.085Z,-5.02
2019-01-18T08:24:31.930Z,-4.89
2019-01-18T08:26:09.047Z,-4.93
2019-01-18T08:27:50.426Z,-4.98
2019-01-18T08:29:29.424Z,-4.98
2019-01-18T08:31:07.975Z,-4.87
2019-01-18T08:32:47.417Z,-4.94
2019-01-18T08:34:24.257Z,-4.94
2019-01-18T08:36:07.198Z,-4.96
2019-01-18T08:37:46.041Z,-4.95
2019-01-18T08:39:22.987Z,-4.92
2019-01-18T08:41:03.285Z,-4.88
2019-01-18T08:42:42.021Z,-4.85
2019-01-18T08:44:17.950Z,-4.81
2019-01-18T08:46:01.743Z,-4.68
2019-01-18T08:47:38.860Z,-4.60
2019-01-18T08:49:23.388Z,-4.45
2019-01-18T08:51:02.393Z,-4.34
2019-01-18T08:52:38.405Z,-4.25
2019-01-18T08:54:15.519Z,-4.29
2019-01-18T08:55:52.464Z,-4.34
2019-01-18T08:57:33.266Z,-4.38
2019-01-18T08:59:17.740Z,-4.36
2019-01-18T09:00:53.216Z,-4.32
2019-01-18T09:02:28.939Z,-4.22
2019-01-18T09:04:04.966Z,-4.26
2019-01-18T09:05:43.275Z,-4.26
2019-01-18T09:07:22.956Z,-4.28
2019-01-18T09:09:02.667Z,-4.21
2019-01-18T09:10:38.376Z,-4.21
2019-01-18T09:12:23.272Z,-4.15
2019-01-18T09:13:59.874Z,-4.08
2019-01-18T09:15:40.484Z,-4.01
2019-01-18T09:17:20.684Z,-3.97
2019-01-18T09:18:56.674Z,-3.89
2019-01-18T09:20:32.894Z,-3.82
2019-01-18T09:22:15.228Z,-3.69
2019-01-18T09:23:50.552Z,-3.66
2019-01-18T09:25:26.391Z,-3.61
2019-01-18T09:27:03.603Z,-3.55
2019-01-18T09:28:43.918Z,-3.48
2019-01-18T09:30:28.051Z,-3.45
2019-01-18T09:32:05.004Z,-3.41
2019-01-18T09:33:46.912Z,-3.41
2019-01-18T09:35:27.709Z,-3.41
2019-01-18T09:37:08.645Z,-3.41
2019-01-18T09:38:44.099Z,-3.36
2019-01-18T09:40:21.776Z,-3.32
2019-01-18T09:41:59.191Z,-3.29
2019-01-18T09:43:35.615Z,-3.22
2019-01-18T09:45:13.827Z,-3.17
2019-01-18T09:46:55.464Z,-3.11
2019-01-18T09:48:31.688Z,-3.06
2019-01-18T09:50:14.028Z,-3.01
2019-01-18T09:51:49.710Z,-2.96
2019-01-18T09:53:25.661Z,-2.95
2019-01-18T09:55:06.423Z,-2.83
2019-01-18T09:56:45.651Z,-2.83
2019-01-18T09:58:21.624Z,-2.81
2019-01-18T10:00:06.083Z,-2.77
2019-01-18T10:01:40.227Z,-2.73
2019-01-18T10:03:18.904Z,-2.72
2019-01-18T10:04:54.407Z,-2.70
2019-01-18T10:06:38.473Z,-2.67
2019-01-18T10:08:21.340Z,-2.66
2019-01-18T10:10:07.288Z,-2.61
2019-01-18T10:11:45.682Z,-2.52
2019-01-18T10:13:26.292Z,-2.45
2019-01-18T10:15:06.996Z,-2.49
2019-01-18T10:16:50.787Z,-2.45
2019-01-18T10:18:31.171Z,-2.37
2019-01-18T10:20:13.050Z,-2.30
2019-01-18T10:21:56.577Z,-2.25
2019-01-18T10:23:36.031Z,-2.15
2019-01-18T10:25:13.355Z,-2.08
2019-01-18T10:26:52.414Z,-2.01
2019-01-18T10:28:29.693Z,-1.92
2019-01-18T10:30:25.128Z,-1.86
2019-01-18T10:32:05.399Z,-1.85
2019-01-18T10:33:44.792Z,-1.81
2019-01-18T10:35:25.022Z,-1.79
2019-01-18T10:37:05.267Z,-1.73
2019-01-18T10:38:44.451Z,-1.68
2019-01-18T10:40:48.770Z,-1.65
2019-01-18T10:42:32.524Z,-1.65
2019-01-18T10:44:09.656Z,-1.66
2019-01-18T10:45:47.790Z,-1.60
2019-01-18T10:47:24.577Z,-1.50
2019-01-18T10:49:00.162Z,-1.49
2019-01-18T10:50:36.428Z,-1.48
2019-01-18T10:52:12.049Z,-1.37
2019-01-18T10:53:47.480Z,-1.28
2019-01-18T10:55:27.144Z,-1.30
2019-01-18T10:57:04.973Z,-1.35
2019-01-18T10:58:42.048Z,-1.28
2019-01-18T11:00:23.933Z,-1.31
2019-01-18T11:02:07.157Z,-1.34
2019-01-18T11:03:49.895Z,-1.36
2019-01-18T11:05:26.728Z,-1.26
2019-01-18T11:07:03.370Z,-1.23
2019-01-18T11:08:40.987Z,-1.20
2019-01-18T11:10:16.718Z,-1.08
2019-01-18T11:11:53.607Z,-1.04
2019-01-18T11:13:35.416Z,-0.89
2019-01-18T11:15:14.159Z,-0.74
2019-01-18T11:16:52.827Z,-0.84
2019-01-18T11:18:28.967Z,-0.64
2019-01-18T11:20:04.620Z,-0.47
2019-01-18T11:21:46.382Z,-0.44
2019-01-18T11:23:26.955Z,-0.21
2019-01-18T11:25:06.233Z,0.28
2019-01-18T11:26:42.643Z,0.70
2019-01-18T11:28:22.582Z,0.67
2019-01-18T11:30:03.681Z,0.93
2019-01-18T11:31:40.856Z,0.80
2019-01-18T11:33:16.676Z,0.87
2019-01-18T11:34:54.775Z,0.83
2019-01-18T11:36:37.513Z,1.00
2019-01-18T11:38:20.564Z,0.97
2019-01-18T11:40:03.801Z,0.93
2019-01-18T11:42:05.321Z,0.89
2019-01-18T11:43:51.892Z,0.86
2019-01-18T11:45:30.737Z,0.80
2019-01-18T11:47:14.951Z,0.80
2019-01-18T11:48:50.651Z,0.64
2019-01-18T11:50:29.641Z,0.35
2019-01-18T11:52:08.317Z,0.48
2019-01-18T11:53:48.440Z,0.30
2019-01-18T11:55:24.503Z,0.32
2019-01-18T11:57:06.732Z,0.37
2019-01-18T11:58:43.390Z,0.20
2019-01-18T12:00:22.449Z,-0.23
2019-01-18T12:02:01.071Z,0.03
2019-01-18T12:03:37.341Z,0.25
2019-01-18T12:05:15.653Z,0.34
2019-01-18T12:06:58.876Z,0.38
2019-01-18T12:08:41.878Z,0.34
2019-01-18T12:10:34.386Z,0.33
2019-01-18T12:12:17.905Z,0.30
2019-01-18T12:13:58.079Z,0.17
2019-01-18T12:15:34.123Z,0.20
2019-01-18T12:17:10.306Z,0.40
2019-01-18T12:18:52.104Z,0.23
2019-01-18T12:20:37.323Z,0.25
2019-01-18T12:22:18.485Z,0.17
2019-01-18T12:23:54.397Z,0.18
2019-01-18T12:25:34.250Z,-0.02
2019-01-18T12:27:14.330Z,-0.18
2019-01-18T12:28:52.215Z,0.15
2019-01-18T12:30:38.569Z,0.30
2019-01-18T12:32:18.868Z,0.25
2019-01-18T12:33:54.547Z,0.15
2019-01-18T12:35:33.051Z,0.33
2019-01-18T12:37:11.732Z,0.42
2019-01-18T12:38:48.065Z,0.37
2019-01-18T12:40:29.353Z,0.38
2019-01-18T12:42:08.559Z,0.27
2019-01-18T12:43:55.449Z,0.08
2019-01-18T12:45:36.762Z,0.00
2019-01-18T12:47:16.405Z,0.02
2019-01-18T12:48:56.535Z,0.15
2019-01-18T12:50:37.277Z,0.02
2019-01-18T12:52:16.708Z,0.05
2019-01-18T12:53:55.772Z,-0.09
2019-01-18T12:55:34.635Z,-0.36
2019-01-18T12:57:14.318Z,-0.47
2019-01-18T12:58:56.480Z,-0.59
2019-01-18T13:00:32.747Z,-0.66
2019-01-18T13:02:07.726Z,-0.82
2019-01-18T13:03:47.270Z,-0.94
2019-01-18T13:05:29.270Z,-0.95
2019-01-18T13:07:06.273Z,-0.89
2019-01-18T13:08:43.474Z,-1.01
2019-01-18T13:10:18.932Z,-1.05
2019-01-18T13:11:55.748Z,-1.08
2019-01-18T13:13:40.401Z,-1.15
2019-01-18T13:15:23.752Z,-1.07
2019-01-18T13:16:59.872Z,-1.16
2019-01-18T13:18:37.239Z,-1.23
2019-01-18T13:20:17.140Z,-1.23
2019-01-18T13:21:57.262Z,-1.20
2019-01-18T13:23:31.976Z,-1.33
2019-01-18T13:27:19.683Z,-1.43
2019-01-18T13:28:55.556Z,-1.41
2019-01-18T13:30:32.509Z,-1.47
2019-01-18T13:32:17.687Z,-1.53
2019-01-18T13:34:03.044Z,-1.51
2019-01-18T13:35:37.252Z,-1.57
2019-01-18T13:37:26.495Z,-1.61
2019-01-18T13:39:31.610Z,-1.59
2019-01-18T13:41:20.132Z,-1.51
2019-01-18T13:43:06.546Z,-1.47
2019-01-18T13:44:43.900Z,-1.35
2019-01-18T13:46:24.382Z,-1.25
2019-01-18T13:48:05.773Z,-1.30
2019-01-18T13:49:41.538Z,-1.34
2019-01-18T13:51:19.238Z,-1.38
2019-01-18T13:52:56.981Z,-1.28
2019-01-18T13:54:36.250Z,-1.35
2019-01-18T13:56:22.082Z,-1.20
2019-01-18T13:58:08.687Z,-1.05
2019-01-18T13:59:49.022Z,-0.87
2019-01-18T14:01:28.288Z,-0.84
2019-01-18T14:03:06.505Z,-0.95
2019-01-18T14:04:43.654Z,-1.02
2019-01-18T14:06:20.464Z,-1.08
2019-01-18T14:09:53.461Z,-1.00
2019-01-18T14:11:28.939Z,-1.21
2019-01-18T14:13:08.064Z,-1.42
2019-01-18T14:14:45.532Z,-1.36
2019-01-18T14:16:26.634Z,-1.55
2019-01-18T14:18:04.492Z,-1.67
2019-01-18T14:19:40.785Z,-1.67
2019-01-18T14:21:28.626Z,-1.68
2019-01-18T14:23:16.404Z,-1.77
2019-01-18T14:24:57.533Z,-1.89
2019-01-18T14:26:45.905Z,-2.10
2019-01-18T14:28:29.120Z,-2.09
2019-01-18T14:30:12.859Z,-2.18
2019-01-18T14:31:51.711Z,-2.28
2019-01-18T14:33:27.488Z,-2.38
2019-01-18T14:35:03.455Z,-2.43
2019-01-18T14:36:41.882Z,-2.54
2019-01-18T14:38:25.208Z,-2.61
2019-01-18T14:40:07.296Z,-2.69
2019-01-18T14:41:43.308Z,-2.77
2019-01-18T14:43:18.913Z,-2.84
2019-01-18T14:44:59.406Z,-2.93
2019-01-18T14:46:36.377Z,-2.99
2019-01-18T14:48:12.537Z,-3.06
2019-01-18T14:49:52.528Z,-3.12
2019-01-18T14:51:32.163Z,-3.18
2019-01-18T14:53:08.036Z,-3.24
2019-01-18T14:54:46.098Z,-3.29
2019-01-18T14:56:23.271Z,-3.32
2019-01-18T14:58:19.631Z,-3.37
2019-01-18T15:00:09.144Z,-3.43
2019-01-18T15:02:06.711Z,-3.49
2019-01-18T15:03:45.753Z,-3.57
2019-01-18T15:05:25.317Z,-3.63
2019-01-18T15:07:03.762Z,-3.67
2019-01-18T15:08:42.424Z,-3.70
2019-01-18T15:10:20.486Z,-3.76
2019-01-18T15:12:01.783Z,-3.75
2019-01-18T15:13:45.764Z,-3.78
2019-01-18T15:15:23.807Z,-3.82
2019-01-18T15:17:12.679Z,-3.87
2019-01-18T15:19:00.141Z,-3.95
2019-01-18T15:20:36.415Z,-4.02
2019-01-18T15:22:16.696Z,-4.06
2019-01-18T15:23:54.073Z,-4.12
2019-01-18T15:25:32.071Z,-4.16
2019-01-18T15:27:42.125Z,-4.26
2019-01-18T15:29:03.234Z,-4.27
2019-01-18T15:30:45.536Z,-4.36
2019-01-18T15:36:52.701Z,-4.59
2019-01-18T15:38:39.569Z,-4.71
2019-01-18T15:40:17.712Z,-4.73
2019-01-18T15:41:58.761Z,-4.63
2019-01-18T15:43:35.806Z,-4.60
2019-01-18T15:45:37.186Z,-4.73
2019-01-18T15:47:10.057Z,-4.77
2019-01-18T15:48:49.446Z,-4.71
2019-01-18T15:50:36.571Z,-4.73
2019-01-18T15:52:19.766Z,-4.73
2019-01-18T15:54:05.533Z,-4.76
2019-01-18T15:55:47.507Z,-4.82
2019-01-18T15:57:28.679Z,-4.86
2019-01-18T15:59:08.960Z,-4.90
2019-01-18T16:00:46.372Z,-4.85
2019-01-18T16:02:26.271Z,-4.91
2019-01-18T16:04:04.697Z,-4.95
2019-01-18T16:05:43.864Z,-4.95
2019-01-18T16:07:23.960Z,-4.95
2019-01-18T16:09:07.110Z,-4.97
2019-01-18T16:10:41.471Z,-5.03
2019-01-18T16:12:26.499Z,-5.04
2019-01-18T16:14:04.182Z,-5.01
2019-01-18T16:16:24.839Z,-4.97
2019-01-18T16:18:05.880Z,-4.86
2019-01-18T16:19:49.134Z,-4.91
2019-01-18T16:21:33.590Z,-4.86
2019-01-18T16:23:12.755Z,-4.86
2019-01-18T16:24:51.437Z,-4.86
2019-01-18T16:26:39.795Z,-4.84
2019-01-18T16:28:22.670Z,-4.63
2019-01-18T16:30:00.824Z,-4.62
2019-01-18T16:31:39.733Z,-4.55
2019-01-18T16:33:23.484Z,-4.58
2019-01-18T16:34:59.438Z,-4.61
2019-01-18T16:36:37.987Z,-4.65
2019-01-18T16:38:21.372Z,-4.58
2019-01-18T16:40:03.477Z,-4.51
2019-01-18T16:41:44.977Z,-4.55
2019-01-18T16:43:43.863Z,-4.60
2019-01-18T16:45:19.432Z,-4.60
2019-01-18T16:46:55.965Z,-4.59
2019-01-18T16:48:33.019Z,-4.63
2019-01-18T16:50:09.911Z,-4.62
2019-01-18T16:51:46.042Z,-4.61
2019-01-18T16:53:25.720Z,-4.59
2019-01-18T16:55:04.071Z,-4.67
2019-01-18T16:56:39.620Z,-4.64
2019-01-18T16:58:15.415Z,-4.59
2019-01-18T16:59:58.438Z,-4.72
2019-01-18T17:01:56.345Z,-4.74
2019-01-18T17:03:30.641Z,-4.63
2019-01-18T17:05:05.576Z,-4.69
2019-01-18T17:06:43.421Z,-4.77
2019-01-18T17:08:18.834Z,-4.74
2019-01-18T17:09:57.422Z,-4.77
2019-01-18T17:11:36.080Z,-4.73
2019-01-18T17:13:11.728Z,-4.71
2019-01-18T17:14:48.461Z,-4.67
2019-01-18T17:16:25.249Z,-4.62
2019-01-18T17:18:04.252Z,-4.65
2019-01-18T17:19:44.167Z,-4.73
2019-01-18T17:21:21.891Z,-4.63
2019-01-18T17:23:01.481Z,-4.71
2019-01-18T17:24:37.454Z,-4.79
2019-01-18T17:26:18.903Z,-4.89
2019-01-18T17:27:55.921Z,-4.83
2019-01-18T17:29:31.293Z,-4.85
2019-01-18T17:31:12.185Z,-4.88
2019-01-18T17:32:51.387Z,-4.99
2019-01-18T17:34:27.315Z,-4.95
2019-01-18T17:36:45.789Z,-4.90
2019-01-18T17:38:47.698Z,-5.00
2019-01-18T17:40:48.490Z,-4.99
2019-01-18T17:42:57.912Z,-5.01
2019-01-18T17:45:09.823Z,-5.04
2019-01-18T17:47:12.254Z,-4.93
2019-01-18T17:49:37.625Z,-4.82
2019-01-18T17:52:00.213Z,-4.87
2019-01-18T17:54:13.449Z,-4.86
2019-01-18T17:56:28.139Z,-4.67
2019-01-18T17:58:45.419Z,-4.73
2019-01-18T18:00:38.348Z,-4.71
2019-01-18T18:02:45.363Z,-4.66
2019-01-18T18:04:51.100Z,-4.72
2019-01-18T18:07:12.107Z,-4.71
2019-01-18T18:09:18.215Z,-4.76
2019-01-18T18:11:44.552Z,-4.84
2019-01-18T18:13:56.329Z,-4.83
2019-01-18T18:16:27.997Z,-4.87
2019-01-18T18:18:44.725Z,-4.79
2019-01-18T18:21:05.958Z,-4.79
2019-01-18T18:23:48.081Z,-4.72
2019-01-18T18:26:06.337Z,-4.64
2019-01-18T18:28:18.629Z,-4.60
2019-01-18T18:30:33.575Z,-4.60
2019-01-18T18:33:09.375Z,-4.61
2019-01-18T18:35:25.096Z,-4.59
2019-01-18T18:37:34.840Z,-4.71
2019-01-18T18:39:33.181Z,-4.76
2019-01-18T18:41:34.754Z,-4.86
2019-01-18T18:43:57.134Z,-4.89
2019-01-18T18:46:16.295Z,-4.91
2019-01-18T18:48:58.290Z,-4.89
2019-01-18T18:51:18.905Z,-4.91
2019-01-18T18:54:06.027Z,-4.88
2019-01-18T18:56:21.404Z,-4.78
2019-01-18T18:58:33.819Z,-4.75
2019-01-18T19:00:40.808Z,-4.67
2019-01-18T19:02:40.038Z,-4.71
2019-01-18T19:04:53.893Z,-4.70
2019-01-18T19:07:22.457Z,-4.70
2019-01-18T19:09:28.339Z,-4.72
2019-01-18T19:11:39.234Z,-4.73
2019-01-18T19:13:46.590Z,-4.71
2019-01-18T19:15:57.659Z,-4.66
2019-01-18T19:18:24.821Z,-4.66
2019-01-18T19:20:48.628Z,-4.75
2019-01-18T19:22:58.290Z,-4.81
2019-01-18T19:25:19.819Z,-4.89
2019-01-18T19:27:22.544Z,-4.89
2019-01-18T19:29:30.050Z,-4.84
2019-01-18T19:32:09.571Z,-4.84
2019-01-18T19:34:33.367Z,-4.85
2019-01-18T19:36:46.921Z,-4.77
2019-01-18T19:39:27.837Z,-4.86
2019-01-18T19:41:47.646Z,-4.87
2019-01-18T19:44:15.716Z,-4.87
2019-01-18T19:46:19.281Z,-4.81
2019-01-18T19:48:34.137Z,-4.69
2019-01-18T19:50:44.827Z,-4.56
2019-01-18T19:52:44.917Z,-4.38
2019-01-18T19:54:40.452Z,-4.34
2019-01-18T19:57:01.217Z,-4.30
2019-01-18T19:59:24.248Z,-4.19
2019-01-18T20:01:35.586Z,-4.17
2019-01-18T20:03:49.221Z,-4.17
2019-01-18T20:06:05.348Z,-4.11
2019-01-18T20:08:15.646Z,-4.10
2019-01-18T20:10:20.448Z,-4.07
2019-01-18T20:13:10.732Z,-4.09
2019-01-18T20:15:15.756Z,-4.10
2019-01-18T20:17:50.678Z,-4.21
2019-01-18T20:20:03.487Z,-4.21
2019-01-18T20:22:15.069Z,-4.25
2019-01-18T20:24:51.520Z,-4.32
2019-01-18T20:27:26.894Z,-4.29
2019-01-18T20:29:59.412Z,-4.35
2019-01-18T20:32:32.826Z,-4.39
2019-01-18T20:34:40.717Z,-4.45
2019-01-18T20:36:48.498Z,-4.51
2019-01-18T20:39:08.811Z,-4.53
2019-01-18T20:41:44.090Z,-4.58
2019-01-18T20:44:00.758Z,-4.63
2019-01-18T20:46:23.058Z,-4.63
2019-01-18T20:48:37.517Z,-4.69
2019-01-18T20:51:02.348Z,-4.66
2019-01-18T20:53:22.392Z,-4.65
2019-01-18T20:55:45.880Z,-4.67
2019-01-18T20:57:51.731Z,-4.66
2019-01-18T20:59:42.049Z,-4.65
2019-01-18T21:02:04.335Z,-4.67
2019-01-18T21:04:26.493Z,-4.69
2019-01-18T21:06:44.023Z,-4.80
2019-01-18T21:11:46.720Z,-4.83
2019-01-18T21:14:06.258Z,-4.87
2019-01-18T21:16:22.250Z,-4.86
2019-01-18T21:18:30.610Z,-4.87
2019-01-18T21:20:44.424Z,-4.87
2019-01-18T21:23:12.258Z,-4.80
2019-01-18T21:25:23.270Z,-4.67
2019-01-18T21:27:23.558Z,-4.60
2019-01-18T21:29:37.039Z,-4.54
2019-01-18T21:32:01.683Z,-4.49
2019-01-18T21:34:24.625Z,-4.48
2019-01-18T21:36:35.233Z,-4.45
2019-01-18T21:39:03.766Z,-4.45
2019-01-18T21:41:19.543Z,-4.48
2019-01-18T21:43:51.250Z,-4.53
2019-01-18T21:46:37.242Z,-4.52
2019-01-18T21:48:54.791Z,-4.58
2019-01-18T21:51:20.313Z,-4.57
2019-01-18T21:53:41.361Z,-4.56
2019-01-18T21:55:54.846Z,-4.59
2019-01-18T21:58:21.035Z,-4.59
2019-01-18T22:00:35.691Z,-4.56
2019-01-18T22:02:58.852Z,-4.53
2019-01-18T22:05:23.861Z,-4.51
2019-01-18T22:07:37.701Z,-4.50
2019-01-18T22:09:56.760Z,-4.49
2019-01-18T22:12:09.837Z,-4.53
2019-01-18T22:14:26.574Z,-4.49
2019-01-18T22:16:37.629Z,-4.52
2019-01-18T22:18:45.932Z,-4.53
2019-01-18T22:21:09.046Z,-4.51
2019-01-18T22:23:31.228Z,-4.53
2019-01-18T22:25:54.523Z,-4.55
2019-01-18T22:28:34.856Z,-4.54
2019-01-18T22:30:48.540Z,-4.56
2019-01-18T22:32:51.937Z,-4.62
2019-01-18T22:35:00.539Z,-4.68
2019-01-18T22:37:16.579Z,-4.75
2019-01-18T22:39:22.065Z,-4.78
2019-01-18T22:41:55.605Z,-4.85
2019-01-18T22:44:05.194Z,-4.93
2019-01-18T22:46:30.032Z,-5.02
2019-01-18T22:48:53.196Z,-5.08
2019-01-18T22:51:31.457Z,-5.13
2019-01-18T22:53:32.380Z,-5.12
2019-01-18T22:56:03.654Z,-5.10
2019-01-18T22:58:03.063Z,-5.20
2019-01-18T23:00:36.437Z,-5.27